sensor_id;sensor_type;location;lat;lon;timestamp;P1;durP1;ratioP1;P2;durP2;ratioP2
14377;SDS011;7272;53.668;9.578;2023-11-22T00:00:34;1.70;;;1.60;;
14377;SDS011;7272;53.668;9.578;2023-11-22T00:03:35;1.53;;;1.43;;
14377;SDS011;7272;53.668;9.578;2023-11-22T00:06:36;1.80;;;1.70;;
14377;SDS011;7272;53.668;9.578;2023-11-22T00:09:38;2.37;;;1.80;;
14377;SDS011;7272;53.668;9.578;2023-11-22T00:12:39;2.33;;;2.03;;
14377;SDS011;7272;53.668;9.578;2023-11-22T00:15:41;1.60;;;1.50;;
14377;SDS011;7272;53.668;9.578;2023-11-22T00:18:42;1.70;;;1.60;;
14377;SDS011;7272;53.668;9.578;2023-11-22T00:21:43;2.17;;;1.60;;
14377;SDS011;7272;53.668;9.578;2023-11-22T00:24:44;1.80;;;1.67;;
14377;SDS011;7272;53.668;9.578;2023-11-22T00:27:51;1.70;;;1.60;;
14377;SDS011;7272;53.668;9.578;2023-11-22T00:30:52;1.50;;;1.40;;
14377;SDS011;7272;53.668;9.578;2023-11-22T00:33:54;2.63;;;1.67;;
14377;SDS011;7272;53.668;9.578;2023-11-22T00:36:56;1.57;;;1.47;;
14377;SDS011;7272;53.668;9.578;2023-11-22T00:39:58;2.20;;;1.60;;
14377;SDS011;7272;53.668;9.578;2023-11-22T00:43:01;1.67;;;1.57;;
14377;SDS011;7272;53.668;9.578;2023-11-22T00:46:03;1.70;;;1.60;;
14377;SDS011;7272;53.668;9.578;2023-11-22T00:49:05;1.90;;;1.60;;
14377;SDS011;7272;53.668;9.578;2023-11-22T00:52:07;1.60;;;1.50;;
14377;SDS011;7272;53.668;9.578;2023-11-22T00:55:09;2.67;;;1.50;;
14377;SDS011;7272;53.668;9.578;2023-11-22T00:58:10;1.60;;;1.50;;
14377;SDS011;7272;53.668;9.578;2023-11-22T01:01:12;1.83;;;1.73;;
14377;SDS011;7272;53.668;9.578;2023-11-22T01:04:13;2.17;;;1.90;;
14377;SDS011;7272;53.668;9.578;2023-11-22T01:07:15;1.97;;;1.87;;
14377;SDS011;7272;53.668;9.578;2023-11-22T01:10:16;1.47;;;1.37;;
14377;SDS011;7272;53.668;9.578;2023-11-22T01:13:19;2.00;;;1.70;;
14377;SDS011;7272;53.668;9.578;2023-11-22T01:16:22;2.23;;;1.87;;
14377;SDS011;7272;53.668;9.578;2023-11-22T01:19:23;1.70;;;1.60;;
14377;SDS011;7272;53.668;9.578;2023-11-22T01:22:26;1.67;;;1.57;;
14377;SDS011;7272;53.668;9.578;2023-11-22T01:25:27;1.70;;;1.60;;
14377;SDS011;7272;53.668;9.578;2023-11-22T01:28:30;1.60;;;1.50;;
14377;SDS011;7272;53.668;9.578;2023-11-22T01:31:34;1.77;;;1.67;;
14377;SDS011;7272;53.668;9.578;2023-11-22T01:34:35;2.20;;;1.87;;
14377;SDS011;7272;53.668;9.578;2023-11-22T01:37:36;2.10;;;1.77;;
14377;SDS011;7272;53.668;9.578;2023-11-22T01:40:43;2.17;;;1.57;;
14377;SDS011;7272;53.668;9.578;2023-11-22T01:43:45;1.83;;;1.70;;
14377;SDS011;7272;53.668;9.578;2023-11-22T01:46:46;2.50;;;1.60;;
14377;SDS011;7272;53.668;9.578;2023-11-22T01:49:47;1.70;;;1.60;;
14377;SDS011;7272;53.668;9.578;2023-11-22T01:52:49;1.80;;;1.70;;
14377;SDS011;7272;53.668;9.578;2023-11-22T01:55:50;1.83;;;1.73;;
14377;SDS011;7272;53.668;9.578;2023-11-22T01:58:52;2.87;;;2.37;;
14377;SDS011;7272;53.668;9.578;2023-11-22T02:01:55;1.90;;;1.80;;
14377;SDS011;7272;53.668;9.578;2023-11-22T02:04:56;1.57;;;1.47;;
14377;SDS011;7272;53.668;9.578;2023-11-22T02:07:59;1.93;;;1.77;;
14377;SDS011;7272;53.668;9.578;2023-11-22T02:11:01;1.53;;;1.43;;
14377;SDS011;7272;53.668;9.578;2023-11-22T02:14:04;1.70;;;1.60;;
14377;SDS011;7272;53.668;9.578;2023-11-22T02:17:07;2.13;;;1.50;;
14377;SDS011;7272;53.668;9.578;2023-11-22T02:20:09;1.80;;;1.70;;
14377;SDS011;7272;53.668;9.578;2023-11-22T02:23:12;2.30;;;2.10;;
14377;SDS011;7272;53.668;9.578;2023-11-22T02:26:13;2.00;;;1.90;;
14377;SDS011;7272;53.668;9.578;2023-11-22T02:29:15;1.80;;;1.70;;
14377;SDS011;7272;53.668;9.578;2023-11-22T02:32:17;2.00;;;1.80;;
14377;SDS011;7272;53.668;9.578;2023-11-22T02:35:19;1.97;;;1.80;;
14377;SDS011;7272;53.668;9.578;2023-11-22T02:38:21;1.73;;;1.60;;
14377;SDS011;7272;53.668;9.578;2023-11-22T02:41:23;2.03;;;1.53;;
14377;SDS011;7272;53.668;9.578;2023-11-22T02:44:29;1.83;;;1.43;;
14377;SDS011;7272;53.668;9.578;2023-11-22T02:47:31;2.20;;;2.00;;
14377;SDS011;7272;53.668;9.578;2023-11-22T02:50:32;2.13;;;1.80;;
14377;SDS011;7272;53.668;9.578;2023-11-22T02:53:35;1.70;;;1.60;;
14377;SDS011;7272;53.668;9.578;2023-11-22T02:56:37;2.47;;;1.80;;
14377;SDS011;7272;53.668;9.578;2023-11-22T02:59:40;2.73;;;2.10;;
14377;SDS011;7272;53.668;9.578;2023-11-22T03:02:42;2.00;;;1.80;;
14377;SDS011;7272;53.668;9.578;2023-11-22T03:05:43;1.60;;;1.50;;
14377;SDS011;7272;53.668;9.578;2023-11-22T03:08:45;1.27;;;1.27;;
14377;SDS011;7272;53.668;9.578;2023-11-22T03:11:46;1.50;;;1.40;;
14377;SDS011;7272;53.668;9.578;2023-11-22T03:14:48;1.73;;;1.50;;
14377;SDS011;7272;53.668;9.578;2023-11-22T03:17:49;1.70;;;1.60;;
14377;SDS011;7272;53.668;9.578;2023-11-22T03:20:50;1.73;;;1.63;;
14377;SDS011;7272;53.668;9.578;2023-11-22T03:23:55;1.60;;;1.50;;
14377;SDS011;7272;53.668;9.578;2023-11-22T03:26:56;1.90;;;1.80;;
14377;SDS011;7272;53.668;9.578;2023-11-22T03:29:59;1.70;;;1.60;;
14377;SDS011;7272;53.668;9.578;2023-11-22T03:33:00;1.60;;;1.50;;
14377;SDS011;7272;53.668;9.578;2023-11-22T03:36:03;1.67;;;1.57;;
14377;SDS011;7272;53.668;9.578;2023-11-22T03:39:06;1.80;;;1.70;;
14377;SDS011;7272;53.668;9.578;2023-11-22T03:42:07;2.20;;;2.00;;
14377;SDS011;7272;53.668;9.578;2023-11-22T03:45:09;1.50;;;1.40;;
14377;SDS011;7272;53.668;9.578;2023-11-22T03:48:10;2.00;;;1.80;;
14377;SDS011;7272;53.668;9.578;2023-11-22T03:51:12;2.50;;;2.30;;
14377;SDS011;7272;53.668;9.578;2023-11-22T03:54:14;4.73;;;2.13;;
14377;SDS011;7272;53.668;9.578;2023-11-22T03:57:15;27.73;;;4.07;;
14377;SDS011;7272;53.668;9.578;2023-11-22T04:00:18;2.97;;;1.80;;
14377;SDS011;7272;53.668;9.578;2023-11-22T04:03:19;1.50;;;1.37;;
14377;SDS011;7272;53.668;9.578;2023-11-22T04:06:21;1.43;;;1.37;;
14377;SDS011;7272;53.668;9.578;2023-11-22T04:09:23;2.47;;;2.20;;
14377;SDS011;7272;53.668;9.578;2023-11-22T04:12:24;10.53;;;2.90;;
14377;SDS011;7272;53.668;9.578;2023-11-22T04:15:26;2.40;;;1.87;;
14377;SDS011;7272;53.668;9.578;2023-11-22T04:18:27;3.93;;;2.40;;
14377;SDS011;7272;53.668;9.578;2023-11-22T04:21:28;9.13;;;2.87;;
14377;SDS011;7272;53.668;9.578;2023-11-22T04:24:30;1.50;;;1.40;;
14377;SDS011;7272;53.668;9.578;2023-11-22T04:27:32;1.80;;;1.70;;
14377;SDS011;7272;53.668;9.578;2023-11-22T04:30:33;6.97;;;2.50;;
14377;SDS011;7272;53.668;9.578;2023-11-22T04:33:35;2.37;;;2.17;;
14377;SDS011;7272;53.668;9.578;2023-11-22T04:36:36;3.23;;;2.00;;
14377;SDS011;7272;53.668;9.578;2023-11-22T04:39:39;2.40;;;2.03;;
14377;SDS011;7272;53.668;9.578;2023-11-22T04:42:40;3.47;;;2.47;;
14377;SDS011;7272;53.668;9.578;2023-11-22T04:45:42;2.27;;;2.07;;
14377;SDS011;7272;53.668;9.578;2023-11-22T04:48:43;2.13;;;2.00;;
14377;SDS011;7272;53.668;9.578;2023-11-22T04:51:45;2.40;;;2.00;;
14377;SDS011;7272;53.668;9.578;2023-11-22T04:54:47;3.13;;;2.17;;
14377;SDS011;7272;53.668;9.578;2023-11-22T04:57:48;2.20;;;2.00;;
14377;SDS011;7272;53.668;9.578;2023-11-22T05:00:49;3.00;;;2.70;;
14377;SDS011;7272;53.668;9.578;2023-11-22T05:03:51;2.50;;;2.30;;
14377;SDS011;7272;53.668;9.578;2023-11-22T05:06:55;2.27;;;2.07;;
14377;SDS011;7272;53.668;9.578;2023-11-22T05:09:57;2.60;;;2.40;;
14377;SDS011;7272;53.668;9.578;2023-11-22T05:12:58;2.83;;;2.10;;
14377;SDS011;7272;53.668;9.578;2023-11-22T05:16:01;2.20;;;2.00;;
14377;SDS011;7272;53.668;9.578;2023-11-22T05:19:03;2.80;;;2.23;;
14377;SDS011;7272;53.668;9.578;2023-11-22T05:22:04;2.10;;;1.90;;
14377;SDS011;7272;53.668;9.578;2023-11-22T05:25:07;1.90;;;1.77;;
14377;SDS011;7272;53.668;9.578;2023-11-22T05:28:08;2.40;;;2.20;;
14377;SDS011;7272;53.668;9.578;2023-11-22T05:31:09;2.47;;;2.23;;
14377;SDS011;7272;53.668;9.578;2023-11-22T05:34:12;3.10;;;2.33;;
14377;SDS011;7272;53.668;9.578;2023-11-22T05:37:13;2.30;;;2.10;;
14377;SDS011;7272;53.668;9.578;2023-11-22T05:40:15;6.40;;;2.50;;
14377;SDS011;7272;53.668;9.578;2023-11-22T05:43:17;2.77;;;2.53;;
14377;SDS011;7272;53.668;9.578;2023-11-22T05:46:19;2.37;;;2.17;;
14377;SDS011;7272;53.668;9.578;2023-11-22T05:49:22;2.37;;;2.17;;
14377;SDS011;7272;53.668;9.578;2023-11-22T05:52:23;2.23;;;2.10;;
14377;SDS011;7272;53.668;9.578;2023-11-22T05:55:25;4.67;;;2.23;;
14377;SDS011;7272;53.668;9.578;2023-11-22T05:58:26;2.13;;;1.97;;
14377;SDS011;7272;53.668;9.578;2023-11-22T06:01:29;2.30;;;2.10;;
14377;SDS011;7272;53.668;9.578;2023-11-22T06:04:31;3.77;;;3.00;;
14377;SDS011;7272;53.668;9.578;2023-11-22T06:07:32;6.30;;;3.40;;
14377;SDS011;7272;53.668;9.578;2023-11-22T06:10:34;4.23;;;3.57;;
14377;SDS011;7272;53.668;9.578;2023-11-22T06:13:35;4.10;;;3.17;;
14377;SDS011;7272;53.668;9.578;2023-11-22T06:16:36;3.37;;;2.60;;
14377;SDS011;7272;53.668;9.578;2023-11-22T06:19:38;3.17;;;2.83;;
14377;SDS011;7272;53.668;9.578;2023-11-22T06:22:39;4.20;;;3.17;;
14377;SDS011;7272;53.668;9.578;2023-11-22T06:25:43;3.30;;;2.73;;
14377;SDS011;7272;53.668;9.578;2023-11-22T06:28:44;4.40;;;3.60;;
14377;SDS011;7272;53.668;9.578;2023-11-22T06:31:48;4.83;;;3.30;;
14377;SDS011;7272;53.668;9.578;2023-11-22T06:34:49;4.33;;;3.33;;
14377;SDS011;7272;53.668;9.578;2023-11-22T06:37:51;5.73;;;3.57;;
14377;SDS011;7272;53.668;9.578;2023-11-22T06:40:53;6.63;;;4.00;;
14377;SDS011;7272;53.668;9.578;2023-11-22T06:43:54;5.13;;;3.90;;
14377;SDS011;7272;53.668;9.578;2023-11-22T06:46:56;5.93;;;4.03;;
14377;SDS011;7272;53.668;9.578;2023-11-22T06:49:57;5.67;;;4.10;;
14377;SDS011;7272;53.668;9.578;2023-11-22T06:52:58;5.70;;;4.40;;
14377;SDS011;7272;53.668;9.578;2023-11-22T06:56:00;8.60;;;4.70;;
14377;SDS011;7272;53.668;9.578;2023-11-22T06:59:01;5.97;;;4.30;;
14377;SDS011;7272;53.668;9.578;2023-11-22T07:02:03;3.70;;;3.33;;
14377;SDS011;7272;53.668;9.578;2023-11-22T07:05:05;3.63;;;3.27;;
14377;SDS011;7272;53.668;9.578;2023-11-22T07:08:08;7.20;;;4.60;;
14377;SDS011;7272;53.668;9.578;2023-11-22T07:11:11;4.87;;;4.30;;
14377;SDS011;7272;53.668;9.578;2023-11-22T07:14:14;5.87;;;4.00;;
14377;SDS011;7272;53.668;9.578;2023-11-22T07:17:15;3.40;;;3.10;;
14377;SDS011;7272;53.668;9.578;2023-11-22T07:20:17;5.23;;;3.80;;
14377;SDS011;7272;53.668;9.578;2023-11-22T07:23:18;5.23;;;4.00;;
14377;SDS011;7272;53.668;9.578;2023-11-22T07:26:20;6.60;;;4.10;;
14377;SDS011;7272;53.668;9.578;2023-11-22T07:29:22;5.00;;;4.43;;
14377;SDS011;7272;53.668;9.578;2023-11-22T07:32:26;6.77;;;4.30;;
14377;SDS011;7272;53.668;9.578;2023-11-22T07:35:27;3.20;;;2.90;;
14377;SDS011;7272;53.668;9.578;2023-11-22T07:38:29;6.23;;;4.27;;
14377;SDS011;7272;53.668;9.578;2023-11-22T07:41:32;5.23;;;4.23;;
14377;SDS011;7272;53.668;9.578;2023-11-22T07:44:35;5.33;;;4.53;;
14377;SDS011;7272;53.668;9.578;2023-11-22T07:47:38;5.83;;;4.47;;
14377;SDS011;7272;53.668;9.578;2023-11-22T07:50:40;6.50;;;4.37;;
14377;SDS011;7272;53.668;9.578;2023-11-22T07:53:43;6.73;;;5.20;;
14377;SDS011;7272;53.668;9.578;2023-11-22T07:56:45;7.10;;;4.13;;
14377;SDS011;7272;53.668;9.578;2023-11-22T07:59:47;5.90;;;4.53;;
14377;SDS011;7272;53.668;9.578;2023-11-22T08:02:49;6.80;;;5.20;;
14377;SDS011;7272;53.668;9.578;2023-11-22T08:05:50;9.33;;;4.90;;
14377;SDS011;7272;53.668;9.578;2023-11-22T08:08:54;7.77;;;4.97;;
14377;SDS011;7272;53.668;9.578;2023-11-22T08:11:56;6.60;;;4.80;;
14377;SDS011;7272;53.668;9.578;2023-11-22T08:14:57;6.57;;;5.27;;
14377;SDS011;7272;53.668;9.578;2023-11-22T08:17:58;6.27;;;5.17;;
14377;SDS011;7272;53.668;9.578;2023-11-22T08:21:00;6.97;;;4.93;;
14377;SDS011;7272;53.668;9.578;2023-11-22T08:24:02;7.53;;;4.87;;
14377;SDS011;7272;53.668;9.578;2023-11-22T08:27:04;6.63;;;5.20;;
14377;SDS011;7272;53.668;9.578;2023-11-22T08:30:07;6.87;;;5.40;;
14377;SDS011;7272;53.668;9.578;2023-11-22T08:33:13;9.03;;;6.03;;
14377;SDS011;7272;53.668;9.578;2023-11-22T08:36:14;9.10;;;6.13;;
14377;SDS011;7272;53.668;9.578;2023-11-22T08:39:16;8.70;;;6.30;;
14377;SDS011;7272;53.668;9.578;2023-11-22T08:42:18;8.40;;;6.00;;
14377;SDS011;7272;53.668;9.578;2023-11-22T08:45:19;10.80;;;6.63;;
14377;SDS011;7272;53.668;9.578;2023-11-22T08:48:20;8.00;;;6.33;;
14377;SDS011;7272;53.668;9.578;2023-11-22T08:51:21;7.03;;;5.20;;
14377;SDS011;7272;53.668;9.578;2023-11-22T08:54:23;10.80;;;7.00;;
14377;SDS011;7272;53.668;9.578;2023-11-22T08:57:24;12.03;;;6.10;;
14377;SDS011;7272;53.668;9.578;2023-11-22T09:00:26;10.70;;;6.67;;
14377;SDS011;7272;53.668;9.578;2023-11-22T09:03:29;7.93;;;5.93;;
14377;SDS011;7272;53.668;9.578;2023-11-22T09:06:30;7.07;;;5.33;;
14377;SDS011;7272;53.668;9.578;2023-11-22T09:09:32;7.47;;;5.37;;
14377;SDS011;7272;53.668;9.578;2023-11-22T09:12:36;6.87;;;5.27;;
14377;SDS011;7272;53.668;9.578;2023-11-22T09:15:39;9.87;;;5.63;;
14377;SDS011;7272;53.668;9.578;2023-11-22T09:18:42;6.00;;;5.00;;
14377;SDS011;7272;53.668;9.578;2023-11-22T09:21:43;9.37;;;5.10;;
14377;SDS011;7272;53.668;9.578;2023-11-22T09:24:44;6.70;;;4.93;;
14377;SDS011;7272;53.668;9.578;2023-11-22T09:27:47;5.17;;;4.67;;
14377;SDS011;7272;53.668;9.578;2023-11-22T09:30:51;5.93;;;4.90;;
14377;SDS011;7272;53.668;9.578;2023-11-22T09:33:53;5.67;;;5.13;;
14377;SDS011;7272;53.668;9.578;2023-11-22T09:36:54;6.13;;;5.23;;
14377;SDS011;7272;53.668;9.578;2023-11-22T09:39:55;6.37;;;5.57;;
14377;SDS011;7272;53.668;9.578;2023-11-22T09:42:57;6.37;;;4.80;;
14377;SDS011;7272;53.668;9.578;2023-11-22T09:45:58;4.73;;;4.20;;
14377;SDS011;7272;53.668;9.578;2023-11-22T09:49:00;6.67;;;4.60;;
14377;SDS011;7272;53.668;9.578;2023-11-22T09:52:08;5.07;;;4.13;;
14377;SDS011;7272;53.668;9.578;2023-11-22T09:55:14;4.33;;;3.67;;
14377;SDS011;7272;53.668;9.578;2023-11-22T09:58:16;5.80;;;3.77;;
14377;SDS011;7272;53.668;9.578;2023-11-22T10:01:20;5.20;;;4.07;;
14377;SDS011;7272;53.668;9.578;2023-11-22T10:04:22;4.47;;;4.07;;
14377;SDS011;7272;53.668;9.578;2023-11-22T10:07:25;4.07;;;3.67;;
14377;SDS011;7272;53.668;9.578;2023-11-22T10:10:26;4.60;;;4.20;;
14377;SDS011;7272;53.668;9.578;2023-11-22T10:13:30;4.43;;;3.67;;
14377;SDS011;7272;53.668;9.578;2023-11-22T10:16:32;4.20;;;3.47;;
14377;SDS011;7272;53.668;9.578;2023-11-22T10:19:33;4.77;;;3.73;;
14377;SDS011;7272;53.668;9.578;2023-11-22T10:22:40;3.73;;;3.37;;
14377;SDS011;7272;53.668;9.578;2023-11-22T10:25:45;5.33;;;3.37;;
14377;SDS011;7272;53.668;9.578;2023-11-22T10:28:50;3.70;;;3.40;;
14377;SDS011;7272;53.668;9.578;2023-11-22T10:31:52;4.10;;;3.70;;
14377;SDS011;7272;53.668;9.578;2023-11-22T10:34:55;3.93;;;3.63;;
14377;SDS011;7272;53.668;9.578;2023-11-22T10:37:56;4.13;;;3.73;;
14377;SDS011;7272;53.668;9.578;2023-11-22T10:40:57;3.10;;;2.80;;
14377;SDS011;7272;53.668;9.578;2023-11-22T10:44:00;3.73;;;3.07;;
14377;SDS011;7272;53.668;9.578;2023-11-22T10:47:04;3.87;;;3.40;;
14377;SDS011;7272;53.668;9.578;2023-11-22T10:50:06;3.40;;;3.10;;
14377;SDS011;7272;53.668;9.578;2023-11-22T10:53:08;4.17;;;3.43;;
14377;SDS011;7272;53.668;9.578;2023-11-22T10:56:14;3.70;;;3.30;;
14377;SDS011;7272;53.668;9.578;2023-11-22T10:59:16;3.87;;;3.30;;
14377;SDS011;7272;53.668;9.578;2023-11-22T11:02:23;4.07;;;3.67;;
14377;SDS011;7272;53.668;9.578;2023-11-22T11:05:27;4.10;;;3.70;;
14377;SDS011;7272;53.668;9.578;2023-11-22T11:08:30;3.20;;;2.90;;
14377;SDS011;7272;53.668;9.578;2023-11-22T11:11:34;4.23;;;3.57;;
14377;SDS011;7272;53.668;9.578;2023-11-22T11:14:37;3.67;;;3.37;;
14377;SDS011;7272;53.668;9.578;2023-11-22T11:17:39;4.07;;;3.23;;
14377;SDS011;7272;53.668;9.578;2023-11-22T11:20:44;3.43;;;3.13;;
14377;SDS011;7272;53.668;9.578;2023-11-22T11:23:50;3.50;;;3.13;;
14377;SDS011;7272;53.668;9.578;2023-11-22T11:26:55;3.27;;;2.97;;
14377;SDS011;7272;53.668;9.578;2023-11-22T11:29:57;2.80;;;2.60;;
14377;SDS011;7272;53.668;9.578;2023-11-22T11:32:58;3.03;;;2.73;;
14377;SDS011;7272;53.668;9.578;2023-11-22T11:36:02;2.53;;;2.33;;
14377;SDS011;7272;53.668;9.578;2023-11-22T11:39:05;2.80;;;2.60;;
14377;SDS011;7272;53.668;9.578;2023-11-22T11:42:09;2.67;;;2.37;;
14377;SDS011;7272;53.668;9.578;2023-11-22T11:45:14;2.80;;;2.23;;
14377;SDS011;7272;53.668;9.578;2023-11-22T11:48:16;2.40;;;2.20;;
14377;SDS011;7272;53.668;9.578;2023-11-22T11:51:18;2.47;;;2.33;;
14377;SDS011;7272;53.668;9.578;2023-11-22T11:54:20;2.30;;;2.10;;
14377;SDS011;7272;53.668;9.578;2023-11-22T11:57:22;2.63;;;2.43;;
14377;SDS011;7272;53.668;9.578;2023-11-22T12:00:23;3.03;;;2.20;;
14377;SDS011;7272;53.668;9.578;2023-11-22T12:03:25;3.67;;;2.37;;
14377;SDS011;7272;53.668;9.578;2023-11-22T12:06:28;2.00;;;1.90;;
14377;SDS011;7272;53.668;9.578;2023-11-22T12:09:29;2.00;;;1.80;;
14377;SDS011;7272;53.668;9.578;2023-11-22T12:12:31;1.80;;;1.70;;
14377;SDS011;7272;53.668;9.578;2023-11-22T12:15:32;1.60;;;1.50;;
14377;SDS011;7272;53.668;9.578;2023-11-22T12:18:38;1.87;;;1.70;;
14377;SDS011;7272;53.668;9.578;2023-11-22T12:21:40;1.70;;;1.60;;
14377;SDS011;7272;53.668;9.578;2023-11-22T12:24:41;1.93;;;1.80;;
14377;SDS011;7272;53.668;9.578;2023-11-22T12:27:44;1.50;;;1.40;;
14377;SDS011;7272;53.668;9.578;2023-11-22T12:30:46;3.83;;;2.20;;
14377;SDS011;7272;53.668;9.578;2023-11-22T12:33:48;1.60;;;1.50;;
14377;SDS011;7272;53.668;9.578;2023-11-22T12:36:49;1.97;;;1.80;;
14377;SDS011;7272;53.668;9.578;2023-11-22T12:39:51;1.80;;;1.70;;
14377;SDS011;7272;53.668;9.578;2023-11-22T12:42:52;2.07;;;1.87;;
14377;SDS011;7272;53.668;9.578;2023-11-22T12:46:01;1.97;;;1.87;;
14377;SDS011;7272;53.668;9.578;2023-11-22T12:49:06;1.80;;;1.70;;
14377;SDS011;7272;53.668;9.578;2023-11-22T12:52:07;1.87;;;1.77;;
14377;SDS011;7272;53.668;9.578;2023-11-22T12:55:09;1.80;;;1.70;;
14377;SDS011;7272;53.668;9.578;2023-11-22T12:58:10;1.83;;;1.73;;
14377;SDS011;7272;53.668;9.578;2023-11-22T13:01:13;2.40;;;2.20;;
14377;SDS011;7272;53.668;9.578;2023-11-22T13:04:14;2.53;;;1.80;;
14377;SDS011;7272;53.668;9.578;2023-11-22T13:07:16;2.00;;;1.80;;
14377;SDS011;7272;53.668;9.578;2023-11-22T13:13:44;2.80;;;1.80;;
14377;SDS011;7272;53.668;9.578;2023-11-22T13:16:47;1.97;;;1.87;;
14377;SDS011;7272;53.668;9.578;2023-11-22T13:19:48;1.80;;;1.70;;
14377;SDS011;7272;53.668;9.578;2023-11-22T13:22:50;2.03;;;1.90;;
14377;SDS011;7272;53.668;9.578;2023-11-22T13:25:51;2.10;;;2.00;;
14377;SDS011;7272;53.668;9.578;2023-11-22T13:28:52;2.97;;;2.00;;
14377;SDS011;7272;53.668;9.578;2023-11-22T13:31:56;1.90;;;1.80;;
14377;SDS011;7272;53.668;9.578;2023-11-22T13:34:58;3.27;;;2.10;;
14377;SDS011;7272;53.668;9.578;2023-11-22T13:38:00;2.00;;;1.90;;
14377;SDS011;7272;53.668;9.578;2023-11-22T13:41:02;2.03;;;1.90;;
14377;SDS011;7272;53.668;9.578;2023-11-22T13:44:03;1.87;;;1.77;;
14377;SDS011;7272;53.668;9.578;2023-11-22T13:47:06;1.70;;;1.60;;
14377;SDS011;7272;53.668;9.578;2023-11-22T13:50:08;2.07;;;1.87;;
14377;SDS011;7272;53.668;9.578;2023-11-22T13:53:10;1.70;;;1.60;;
14377;SDS011;7272;53.668;9.578;2023-11-22T13:56:11;1.77;;;1.67;;
14377;SDS011;7272;53.668;9.578;2023-11-22T13:59:12;1.67;;;1.57;;
14377;SDS011;7272;53.668;9.578;2023-11-22T14:02:14;1.70;;;1.60;;
14377;SDS011;7272;53.668;9.578;2023-11-22T14:05:16;2.13;;;1.80;;
14377;SDS011;7272;53.668;9.578;2023-11-22T14:08:18;1.80;;;1.70;;
14377;SDS011;7272;53.668;9.578;2023-11-22T14:11:20;2.63;;;1.73;;
14377;SDS011;7272;53.668;9.578;2023-11-22T14:14:21;2.07;;;1.80;;
14377;SDS011;7272;53.668;9.578;2023-11-22T14:17:23;1.90;;;1.80;;
14377;SDS011;7272;53.668;9.578;2023-11-22T14:20:24;2.67;;;1.77;;
14377;SDS011;7272;53.668;9.578;2023-11-22T14:23:25;2.27;;;1.73;;
14377;SDS011;7272;53.668;9.578;2023-11-22T14:26:27;1.70;;;1.60;;
14377;SDS011;7272;53.668;9.578;2023-11-22T14:29:28;1.53;;;1.43;;
14377;SDS011;7272;53.668;9.578;2023-11-22T14:32:30;1.87;;;1.77;;
14377;SDS011;7272;53.668;9.578;2023-11-22T14:35:31;2.13;;;1.83;;
14377;SDS011;7272;53.668;9.578;2023-11-22T14:38:33;1.63;;;1.53;;
14377;SDS011;7272;53.668;9.578;2023-11-22T14:41:34;1.80;;;1.70;;
14377;SDS011;7272;53.668;9.578;2023-11-22T14:44:35;2.03;;;1.83;;
14377;SDS011;7272;53.668;9.578;2023-11-22T14:47:37;1.70;;;1.60;;
14377;SDS011;7272;53.668;9.578;2023-11-22T14:50:40;1.90;;;1.70;;
14377;SDS011;7272;53.668;9.578;2023-11-22T14:53:41;3.07;;;1.80;;
14377;SDS011;7272;53.668;9.578;2023-11-22T14:56:42;2.00;;;1.80;;
14377;SDS011;7272;53.668;9.578;2023-11-22T14:59:45;1.90;;;1.73;;
14377;SDS011;7272;53.668;9.578;2023-11-22T15:02:47;1.97;;;1.77;;
14377;SDS011;7272;53.668;9.578;2023-11-22T15:05:52;1.70;;;1.60;;
14377;SDS011;7272;53.668;9.578;2023-11-22T15:08:53;2.33;;;2.13;;
14377;SDS011;7272;53.668;9.578;2023-11-22T15:11:54;2.03;;;1.83;;
14377;SDS011;7272;53.668;9.578;2023-11-22T15:14:57;1.97;;;1.77;;
14377;SDS011;7272;53.668;9.578;2023-11-22T15:18:00;2.20;;;1.97;;
14377;SDS011;7272;53.668;9.578;2023-11-22T15:21:01;1.87;;;1.77;;
14377;SDS011;7272;53.668;9.578;2023-11-22T15:24:02;1.77;;;1.67;;
14377;SDS011;7272;53.668;9.578;2023-11-22T15:27:04;1.73;;;1.63;;
14377;SDS011;7272;53.668;9.578;2023-11-22T15:30:06;1.83;;;1.73;;
14377;SDS011;7272;53.668;9.578;2023-11-22T15:33:10;1.63;;;1.53;;
14377;SDS011;7272;53.668;9.578;2023-11-22T15:36:11;2.93;;;2.00;;
14377;SDS011;7272;53.668;9.578;2023-11-22T15:39:12;2.27;;;1.90;;
14377;SDS011;7272;53.668;9.578;2023-11-22T15:42:15;2.37;;;1.60;;
14377;SDS011;7272;53.668;9.578;2023-11-22T15:45:17;1.60;;;1.50;;
14377;SDS011;7272;53.668;9.578;2023-11-22T15:48:19;1.50;;;1.40;;
14377;SDS011;7272;53.668;9.578;2023-11-22T15:51:20;1.77;;;1.67;;
14377;SDS011;7272;53.668;9.578;2023-11-22T15:54:21;1.83;;;1.70;;
14377;SDS011;7272;53.668;9.578;2023-11-22T15:57:22;1.60;;;1.50;;
14377;SDS011;7272;53.668;9.578;2023-11-22T16:00:24;2.00;;;1.77;;
14377;SDS011;7272;53.668;9.578;2023-11-22T16:03:25;2.03;;;1.83;;
14377;SDS011;7272;53.668;9.578;2023-11-22T16:06:27;1.70;;;1.60;;
14377;SDS011;7272;53.668;9.578;2023-11-22T16:09:28;2.43;;;1.83;;
14377;SDS011;7272;53.668;9.578;2023-11-22T16:12:30;1.73;;;1.63;;
14377;SDS011;7272;53.668;9.578;2023-11-22T16:15:32;2.13;;;1.60;;
14377;SDS011;7272;53.668;9.578;2023-11-22T16:18:34;2.00;;;1.80;;
14377;SDS011;7272;53.668;9.578;2023-11-22T16:21:38;3.67;;;1.80;;
14377;SDS011;7272;53.668;9.578;2023-11-22T16:24:39;2.10;;;1.90;;
14377;SDS011;7272;53.668;9.578;2023-11-22T16:27:41;2.20;;;1.67;;
14377;SDS011;7272;53.668;9.578;2023-11-22T16:30:42;1.90;;;1.80;;
14377;SDS011;7272;53.668;9.578;2023-11-22T16:33:44;1.83;;;1.73;;
14377;SDS011;7272;53.668;9.578;2023-11-22T16:36:45;2.43;;;1.93;;
14377;SDS011;7272;53.668;9.578;2023-11-22T16:39:46;2.50;;;2.30;;
14377;SDS011;7272;53.668;9.578;2023-11-22T16:42:48;2.70;;;2.30;;
14377;SDS011;7272;53.668;9.578;2023-11-22T16:45:50;3.00;;;2.50;;
14377;SDS011;7272;53.668;9.578;2023-11-22T16:48:52;2.10;;;1.93;;
14377;SDS011;7272;53.668;9.578;2023-11-22T16:51:54;2.67;;;2.40;;
14377;SDS011;7272;53.668;9.578;2023-11-22T16:54:55;2.43;;;2.23;;
14377;SDS011;7272;53.668;9.578;2023-11-22T16:57:56;3.63;;;2.17;;
14377;SDS011;7272;53.668;9.578;2023-11-22T17:00:59;2.20;;;2.00;;
14377;SDS011;7272;53.668;9.578;2023-11-22T17:04:01;2.30;;;2.10;;
14377;SDS011;7272;53.668;9.578;2023-11-22T17:07:02;2.30;;;2.10;;
14377;SDS011;7272;53.668;9.578;2023-11-22T17:10:04;2.53;;;2.33;;
14377;SDS011;7272;53.668;9.578;2023-11-22T17:13:06;2.57;;;2.37;;
14377;SDS011;7272;53.668;9.578;2023-11-22T17:16:07;2.53;;;2.20;;
14377;SDS011;7272;53.668;9.578;2023-11-22T17:19:09;2.80;;;2.50;;
14377;SDS011;7272;53.668;9.578;2023-11-22T17:22:10;2.77;;;2.50;;
14377;SDS011;7272;53.668;9.578;2023-11-22T17:25:12;2.73;;;2.43;;
14377;SDS011;7272;53.668;9.578;2023-11-22T17:28:13;2.40;;;2.20;;
14377;SDS011;7272;53.668;9.578;2023-11-22T17:31:14;2.60;;;2.40;;
14377;SDS011;7272;53.668;9.578;2023-11-22T17:34:16;2.83;;;2.40;;
14377;SDS011;7272;53.668;9.578;2023-11-22T17:37:18;2.47;;;2.27;;
14377;SDS011;7272;53.668;9.578;2023-11-22T17:40:19;2.40;;;2.20;;
14377;SDS011;7272;53.668;9.578;2023-11-22T17:43:21;4.20;;;2.77;;
14377;SDS011;7272;53.668;9.578;2023-11-22T17:46:23;2.77;;;2.57;;
14377;SDS011;7272;53.668;9.578;2023-11-22T17:49:26;2.70;;;2.50;;
14377;SDS011;7272;53.668;9.578;2023-11-22T17:52:27;3.00;;;2.80;;
14377;SDS011;7272;53.668;9.578;2023-11-22T17:55:28;3.07;;;2.77;;
14377;SDS011;7272;53.668;9.578;2023-11-22T17:58:29;4.50;;;3.17;;
14377;SDS011;7272;53.668;9.578;2023-11-22T18:01:31;4.33;;;2.93;;
14377;SDS011;7272;53.668;9.578;2023-11-22T18:04:33;3.93;;;3.13;;
14377;SDS011;7272;53.668;9.578;2023-11-22T18:07:35;3.20;;;2.90;;
14377;SDS011;7272;53.668;9.578;2023-11-22T18:10:37;3.63;;;3.33;;
14377;SDS011;7272;53.668;9.578;2023-11-22T18:13:38;3.17;;;2.90;;
14377;SDS011;7272;53.668;9.578;2023-11-22T18:16:40;3.10;;;2.80;;
14377;SDS011;7272;53.668;9.578;2023-11-22T18:19:43;3.70;;;2.90;;
14377;SDS011;7272;53.668;9.578;2023-11-22T18:22:44;3.30;;;3.00;;
14377;SDS011;7272;53.668;9.578;2023-11-22T18:25:45;3.53;;;3.23;;
14377;SDS011;7272;53.668;9.578;2023-11-22T18:28:46;4.83;;;3.17;;
14377;SDS011;7272;53.668;9.578;2023-11-22T18:31:47;3.33;;;2.93;;
14377;SDS011;7272;53.668;9.578;2023-11-22T18:34:50;2.90;;;2.67;;